Time;durP1;ratioP1;P1;durP2;ratioP2;P2;SDS_P1;SDS_P2;PMS_P1;PMS_P2;Temp;Humidity;BMP_temperature;BMP_pressure;BME280_temperature;BME280_humidity;BME280_pressure;Samples;Min_cycle;Max_cycle;Signal;HPM_P1;HPM_P2
2022/06/04 00:00:34;;;;;;;;;29.00;29.00;;;;;;;;4995277;28;51661;-63
2022/06/04 00:02:59;;;;;;;;;29.00;28.50;;;;;;;;4991329;28;51121;-63
2022/06/04 00:05:26;;;;;;;;;28.75;28.25;;;;;;;;4994493;28;51224;-62
2022/06/04 00:07:52;;;;;;;;;28.25;28.00;;;;;;;;4993722;28;51301;-62
2022/06/04 00:15:49;;;;;;;;;33.50;31.25;;;;;;;;4995330;28;51104;-62
2022/06/04 00:18:15;;;;;;;;;33.00;32.00;;;;;;;;4994236;28;51206;-62
2022/06/04 00:20:41;;;;;;;;;34.50;31.50;;;;;;;;4993215;28;51783;-62
2022/06/04 00:23:07;;;;;;;;;30.75;29.50;;;;;;;;4994920;28;51127;-62
2022/06/04 00:25:33;;;;;;;;;34.25;31.25;;;;;;;;4993127;28;51881;-62
2022/06/04 00:27:59;;;;;;;;;27.50;27.50;;;;;;;;4991842;28;51528;-63
2022/06/04 00:30:25;;;;;;;;;29.50;29.50;;;;;;;;4994819;28;51883;-62
2022/06/04 00:32:50;;;;;;;;;29.25;28.75;;;;;;;;4994027;28;51041;-62
2022/06/04 00:35:15;;;;;;;;;30.00;28.50;;;;;;;;4992575;28;51097;-62
2022/06/04 00:37:41;;;;;;;;;28.25;28.25;;;;;;;;4993505;28;51058;-62
2022/06/04 00:40:08;;;;;;;;;31.50;30.00;;;;;;;;4994261;28;51611;-62
2022/06/04 00:42:33;;;;;;;;;33.00;31.75;;;;;;;;4994402;28;53057;-62
2022/06/04 00:45:22;;;;;;;;;32.50;30.00;;;;;;;;4992035;28;51132;-63
2022/06/04 00:47:47;;;;;;;;;33.00;31.75;;;;;;;;4988822;28;51264;-62
2022/06/04 00:50:15;;;;;;;;;34.25;32.25;;;;;;;;4995093;28;51205;-63
2022/06/04 00:52:40;;;;;;;;;31.50;30.75;;;;;;;;4991762;28;51691;-62
2022/06/04 00:55:06;;;;;;;;;33.75;31.75;;;;;;;;4992556;28;51162;-62
2022/06/04 00:57:50;;;;;;;;;35.50;33.25;;;;;;;;4993243;28;51108;-62
2022/06/04 01:00:22;;;;;;;;;32.25;31.75;;;;;;;;4990908;28;51103;-62
2022/06/04 01:03:02;;;;;;;;;30.50;28.50;;;;;;;;5001795;28;51197;-62
2022/06/04 01:05:36;;;;;;;;;28.25;26.75;;;;;;;;4991155;28;51524;-62
2022/06/04 01:08:04;;;;;;;;;29.00;28.00;;;;;;;;4992852;28;51114;-62
2022/06/04 01:10:33;;;;;;;;;31.25;29.50;;;;;;;;4994474;28;52095;-62
2022/06/04 01:13:01;;;;;;;;;32.50;31.25;;;;;;;;4985163;28;51167;-63
2022/06/04 01:15:26;;;;;;;;;35.00;33.75;;;;;;;;4990358;28;51125;-63
2022/06/04 01:18:12;;;;;;;;;34.00;32.00;;;;;;;;4990669;28;51060;-62
2022/06/04 01:20:57;;;;;;;;;30.50;29.25;;;;;;;;4991168;28;53449;-62
2022/06/04 01:23:31;;;;;;;;;33.00;29.75;;;;;;;;4996190;28;51088;-63
2022/06/04 01:26:15;;;;;;;;;30.75;29.25;;;;;;;;4994610;28;51113;-63
2022/06/04 01:28:44;;;;;;;;;28.00;27.00;;;;;;;;4992210;28;51364;-62
2022/06/04 01:31:12;;;;;;;;;25.75;24.50;;;;;;;;4994332;28;52150;-63
2022/06/04 01:33:40;;;;;;;;;28.75;26.50;;;;;;;;4993575;28;50952;-63
2022/06/04 01:36:10;;;;;;;;;30.50;29.50;;;;;;;;4990842;28;51174;-64
2022/06/04 01:38:43;;;;;;;;;28.25;28.00;;;;;;;;4988839;28;51516;-62
2022/06/04 01:41:14;;;;;;;;;28.00;28.00;;;;;;;;5002205;28;51775;-63
2022/06/04 01:43:42;;;;;;;;;30.75;28.75;;;;;;;;4991712;28;51210;-63
2022/06/04 01:46:25;;;;;;;;;33.25;30.75;;;;;;;;4995481;28;51043;-63
2022/06/04 01:48:58;;;;;;;;;34.75;31.75;;;;;;;;4990795;28;51042;-62
2022/06/04 01:51:26;;;;;;;;;32.25;30.75;;;;;;;;4993763;28;51904;-62
2022/06/04 01:53:54;;;;;;;;;33.50;29.25;;;;;;;;4989777;28;51052;-62
2022/06/04 01:56:21;;;;;;;;;32.50;31.00;;;;;;;;4991420;28;51132;-62
2022/06/04 01:58:50;;;;;;;;;29.00;29.00;;;;;;;;4991472;28;50947;-62
2022/06/04 02:01:17;;;;;;;;;32.50;30.50;;;;;;;;4986778;28;51820;-62
2022/06/04 02:03:54;;;;;;;;;31.00;30.00;;;;;;;;4992694;28;51059;-62
2022/06/04 02:06:22;;;;;;;;;31.00;29.50;;;;;;;;4992331;28;50907;-63
2022/06/04 02:08:56;;;;;;;;;30.50;28.75;;;;;;;;4991722;28;51106;-61
2022/06/04 02:11:23;;;;;;;;;34.50;31.50;;;;;;;;4982431;28;52173;-63
2022/06/04 02:13:50;;;;;;;;;31.50;29.75;;;;;;;;4999742;28;51143;-62
2022/06/04 02:16:16;;;;;;;;;26.50;25.25;;;;;;;;4992838;28;51368;-62
2022/06/04 02:18:41;;;;;;;;;29.50;27.25;;;;;;;;4989117;28;51321;-62
2022/06/04 02:21:06;;;;;;;;;30.50;28.50;;;;;;;;4989855;28;51180;-63
2022/06/04 02:23:33;;;;;;;;;30.50;29.25;;;;;;;;4992790;28;51176;-62
2022/06/04 02:25:59;;;;;;;;;30.00;29.50;;;;;;;;4991698;28;51070;-63
2022/06/04 02:28:24;;;;;;;;;30.25;29.25;;;;;;;;4992135;28;50936;-62
2022/06/04 02:31:08;;;;;;;;;29.25;29.25;;;;;;;;4989297;28;51690;-63
2022/06/04 02:33:33;;;;;;;;;30.00;29.00;;;;;;;;4993333;28;50932;-63
2022/06/04 02:36:03;;;;;;;;;29.00;29.00;;;;;;;;4991431;28;50911;-63
2022/06/04 02:38:38;;;;;;;;;34.25;30.25;;;;;;;;4991852;28;51347;-63
2022/06/04 02:41:07;;;;;;;;;29.50;29.25;;;;;;;;4990906;28;52128;-65
2022/06/04 02:43:40;;;;;;;;;32.25;30.25;;;;;;;;4993106;28;50978;-62
2022/06/04 02:46:18;;;;;;;;;35.75;32.25;;;;;;;;4991946;28;51033;-62
2022/06/04 02:48:49;;;;;;;;;27.25;26.75;;;;;;;;4991876;28;51128;-62
2022/06/04 02:51:19;;;;;;;;;31.75;30.00;;;;;;;;4992855;28;51976;-63
2022/06/04 02:53:44;;;;;;;;;29.25;28.50;;;;;;;;4992533;28;50906;-63
2022/06/04 02:56:11;;;;;;;;;28.75;26.75;;;;;;;;4990314;28;51265;-62
2022/06/04 02:58:38;;;;;;;;;33.00;31.00;;;;;;;;4991232;28;51054;-62
2022/06/04 03:01:04;;;;;;;;;33.50;30.25;;;;;;;;4997065;28;52005;-62
2022/06/04 03:03:29;;;;;;;;;30.50;29.25;;;;;;;;4991984;28;50945;-63
2022/06/04 03:05:59;;;;;;;;;31.00;28.75;;;;;;;;4993850;28;53426;-64
2022/06/04 03:08:29;;;;;;;;;27.00;26.50;;;;;;;;4992549;28;51307;-62
2022/06/04 03:10:54;;;;;;;;;30.00;28.75;;;;;;;;4992075;28;52939;-63
2022/06/04 03:13:20;;;;;;;;;31.00;29.00;;;;;;;;4991257;28;51031;-63
2022/06/04 03:15:45;;;;;;;;;29.50;28.50;;;;;;;;4992264;28;51015;-63
2022/06/04 03:18:11;;;;;;;;;33.00;30.25;;;;;;;;4992959;28;51163;-62
2022/06/04 03:20:37;;;;;;;;;29.50;28.50;;;;;;;;4989993;28;51102;-63
2022/06/04 03:23:02;;;;;;;;;27.75;26.25;;;;;;;;4997325;28;51379;-63
2022/06/04 03:25:28;;;;;;;;;34.25;31.75;;;;;;;;4991067;28;51164;-62
2022/06/04 03:27:53;;;;;;;;;29.25;29.00;;;;;;;;4992778;28;51272;-63
2022/06/04 03:30:18;;;;;;;;;28.00;27.50;;;;;;;;4980223;28;50890;-63
2022/06/04 03:32:44;;;;;;;;;28.75;28.00;;;;;;;;4988934;28;51059;-63
2022/06/04 03:35:10;;;;;;;;;32.25;30.50;;;;;;;;4992568;28;51937;-62
2022/06/04 03:37:35;;;;;;;;;29.25;28.50;;;;;;;;4992194;28;51033;-63
2022/06/04 03:40:02;;;;;;;;;26.25;24.75;;;;;;;;4987966;28;52324;-63
2022/06/04 03:42:27;;;;;;;;;29.00;29.00;;;;;;;;4988952;28;50976;-63
2022/06/04 03:44:52;;;;;;;;;34.00;31.25;;;;;;;;4992469;28;50872;-63
2022/06/04 03:47:18;;;;;;;;;29.25;29.25;;;;;;;;4992570;28;50960;-63
2022/06/04 03:49:43;;;;;;;;;26.75;25.25;;;;;;;;4988185;28;52958;-64
2022/06/04 03:52:11;;;;;;;;;27.25;26.50;;;;;;;;4989361;28;51100;-63
2022/06/04 03:54:55;;;;;;;;;26.50;25.50;;;;;;;;4989982;28;51236;-63
2022/06/04 04:00:07;;;;;;;;;27.25;27.00;;;;;;;;4985006;28;51073;-63
2022/06/04 04:02:33;;;;;;;;;26.00;26.00;;;;;;;;4994997;28;51273;-63
2022/06/04 04:04:58;;;;;;;;;26.75;26.75;;;;;;;;4989683;28;51201;-63
2022/06/04 04:07:23;;;;;;;;;26.25;25.50;;;;;;;;4986208;28;51271;-63
2022/06/04 04:09:49;;;;;;;;;27.50;26.75;;;;;;;;4992075;28;52038;-63
2022/06/04 04:12:15;;;;;;;;;27.25;26.25;;;;;;;;4990416;28;51230;-61
2022/06/04 04:14:40;;;;;;;;;25.75;25.75;;;;;;;;4988982;28;51323;-62
2022/06/04 04:17:05;;;;;;;;;24.00;23.75;;;;;;;;4987504;28;51393;-63
2022/06/04 04:19:30;;;;;;;;;25.25;24.25;;;;;;;;4989520;28;51542;-62
2022/06/04 04:21:55;;;;;;;;;28.25;28.25;;;;;;;;4991918;28;51033;-63
2022/06/04 04:24:21;;;;;;;;;28.25;27.50;;;;;;;;4989970;28;51267;-63
2022/06/04 04:26:49;;;;;;;;;28.75;26.50;;;;;;;;4993211;28;50931;-63
2022/06/04 04:29:14;;;;;;;;;29.75;28.50;;;;;;;;4993667;28;51116;-63
2022/06/04 04:31:39;;;;;;;;;31.00;30.00;;;;;;;;5001065;28;51177;-62
2022/06/04 04:34:05;;;;;;;;;25.75;25.75;;;;;;;;4987587;28;51186;-62
2022/06/04 04:36:31;;;;;;;;;27.50;27.00;;;;;;;;4995090;28;51133;-63
2022/06/04 04:38:56;;;;;;;;;28.25;27.75;;;;;;;;4989794;28;51675;-63
2022/06/04 04:41:23;;;;;;;;;24.50;24.50;;;;;;;;4995879;28;51148;-62
2022/06/04 04:43:48;;;;;;;;;27.00;25.00;;;;;;;;4992920;28;51050;-62
2022/06/04 04:46:13;;;;;;;;;25.50;24.25;;;;;;;;4995088;28;50962;-63
2022/06/04 04:48:39;;;;;;;;;28.25;28.25;;;;;;;;5001116;28;51108;-63
2022/06/04 04:51:05;;;;;;;;;25.50;23.50;;;;;;;;4993464;28;51278;-63
2022/06/04 04:53:31;;;;;;;;;22.75;22.75;;;;;;;;4992911;28;51113;-63
2022/06/04 04:55:56;;;;;;;;;24.25;22.25;;;;;;;;4996890;28;51083;-63
2022/06/04 04:58:21;;;;;;;;;18.25;18.25;;;;;;;;4991710;28;51156;-63
2022/06/04 05:00:46;;;;;;;;;21.75;21.50;;;;;;;;4993556;28;51205;-63
2022/06/04 05:03:12;;;;;;;;;23.25;22.50;;;;;;;;4991263;28;51132;-63
2022/06/04 05:05:37;;;;;;;;;23.25;22.25;;;;;;;;4994880;28;51333;-63
2022/06/04 05:08:03;;;;;;;;;21.00;20.50;;;;;;;;4992093;28;51797;-63
2022/06/04 05:10:28;;;;;;;;;24.50;24.00;;;;;;;;4993930;28;51057;-63
2022/06/04 05:12:54;;;;;;;;;21.25;20.50;;;;;;;;4994233;28;51207;-63
2022/06/04 05:15:19;;;;;;;;;23.00;23.00;;;;;;;;4993211;28;51200;-62
2022/06/04 05:17:45;;;;;;;;;19.50;19.50;;;;;;;;4993818;28;52233;-64
2022/06/04 05:20:10;;;;;;;;;20.50;20.50;;;;;;;;4996023;28;51103;-63
2022/06/04 05:22:35;;;;;;;;;19.75;19.75;;;;;;;;4993049;28;51110;-63
2022/06/04 05:25:01;;;;;;;;;24.50;24.50;;;;;;;;4993645;28;51096;-63
2022/06/04 05:27:26;;;;;;;;;21.75;21.50;;;;;;;;4992997;28;51979;-62
2022/06/04 05:29:51;;;;;;;;;22.75;22.50;;;;;;;;4990181;28;51096;-63
2022/06/04 05:32:17;;;;;;;;;23.50;22.50;;;;;;;;4992704;28;51065;-63
2022/06/04 05:34:42;;;;;;;;;17.50;16.25;;;;;;;;4994015;28;51228;-63
2022/06/04 05:37:07;;;;;;;;;24.00;23.25;;;;;;;;4992564;28;52074;-63
2022/06/04 05:39:33;;;;;;;;;22.75;22.00;;;;;;;;4993436;28;50895;-63
2022/06/04 05:41:59;;;;;;;;;22.75;21.75;;;;;;;;4992710;28;51099;-63
2022/06/04 05:44:24;;;;;;;;;23.25;21.75;;;;;;;;4991145;28;50888;-63
2022/06/04 05:46:50;;;;;;;;;16.75;16.50;;;;;;;;4990946;28;51143;-63
2022/06/04 05:49:15;;;;;;;;;22.00;20.75;;;;;;;;4994071;28;50961;-64
2022/06/04 05:51:42;;;;;;;;;22.50;21.75;;;;;;;;4993072;28;51150;-63
2022/06/04 05:54:07;;;;;;;;;22.50;22.00;;;;;;;;4992680;28;50912;-63
2022/06/04 05:56:34;;;;;;;;;21.00;20.50;;;;;;;;4992676;28;52145;-64
2022/06/04 05:59:00;;;;;;;;;23.75;22.00;;;;;;;;4990355;28;51173;-63
2022/06/04 06:01:27;;;;;;;;;21.75;20.75;;;;;;;;4992272;28;51332;-63
2022/06/04 06:03:52;;;;;;;;;22.50;20.75;;;;;;;;4991547;28;50916;-63
2022/06/04 06:06:18;;;;;;;;;26.50;25.25;;;;;;;;4995914;28;52341;-64
2022/06/04 06:08:44;;;;;;;;;23.50;22.75;;;;;;;;4994905;28;51170;-63
2022/06/04 06:11:11;;;;;;;;;19.25;18.75;;;;;;;;4990149;28;50990;-63
2022/06/04 06:13:37;;;;;;;;;20.75;20.00;;;;;;;;4993608;28;52102;-63
2022/06/04 06:16:12;;;;;;;;;17.50;17.25;;;;;;;;4993453;28;51858;-63
2022/06/04 06:18:38;;;;;;;;;26.00;26.00;;;;;;;;4985491;28;51073;-64
2022/06/04 06:21:10;;;;;;;;;30.75;28.75;;;;;;;;4982244;28;50922;-63
2022/06/04 06:23:36;;;;;;;;;25.50;24.50;;;;;;;;4993541;28;51088;-64
2022/06/04 06:26:08;;;;;;;;;29.25;27.75;;;;;;;;4992367;28;52362;-63
2022/06/04 06:28:34;;;;;;;;;28.75;27.50;;;;;;;;4989853;28;51128;-63
2022/06/04 06:31:00;;;;;;;;;29.25;28.00;;;;;;;;4991432;28;51252;-63
2022/06/04 06:33:25;;;;;;;;;31.50;30.75;;;;;;;;4991913;28;50923;-64
2022/06/04 06:35:54;;;;;;;;;29.00;27.50;;;;;;;;4991982;28;51673;-63
2022/06/04 06:38:20;;;;;;;;;26.00;24.00;;;;;;;;4990453;28;51200;-63
2022/06/04 06:40:45;;;;;;;;;27.50;27.25;;;;;;;;4992466;28;51404;-63
2022/06/04 06:43:10;;;;;;;;;32.00;31.00;;;;;;;;4991952;28;51112;-63
2022/06/04 06:45:36;;;;;;;;;30.50;30.50;;;;;;;;4992845;28;51072;-64
2022/06/04 06:48:01;;;;;;;;;33.50;31.25;;;;;;;;4991538;28;51057;-64
2022/06/04 06:50:26;;;;;;;;;31.25;29.00;;;;;;;;4993263;28;51120;-63
2022/06/04 06:52:52;;;;;;;;;32.00;30.00;;;;;;;;4989964;28;51220;-63
2022/06/04 06:55:17;;;;;;;;;29.00;28.75;;;;;;;;4984076;28;51915;-63
2022/06/04 06:57:42;;;;;;;;;31.50;30.75;;;;;;;;4989940;28;51072;-64
2022/06/04 07:00:08;;;;;;;;;35.00;32.50;;;;;;;;4991431;28;51367;-63
2022/06/04 07:02:33;;;;;;;;;30.25;30.00;;;;;;;;4995381;28;51315;-63
2022/06/04 07:04:58;;;;;;;;;26.25;24.75;;;;;;;;4991434;28;52011;-63
2022/06/04 07:07:23;;;;;;;;;30.00;28.75;;;;;;;;4988359;28;51132;-63
2022/06/04 07:09:49;;;;;;;;;29.00;28.25;;;;;;;;4992172;28;51112;-63
2022/06/04 07:12:14;;;;;;;;;29.25;28.25;;;;;;;;4986906;28;51147;-63
2022/06/04 07:14:40;;;;;;;;;28.25;27.25;;;;;;;;4982769;28;52894;-64
2022/06/04 07:17:07;;;;;;;;;28.00;27.50;;;;;;;;4988440;28;51023;-64
2022/06/04 07:19:32;;;;;;;;;26.25;25.75;;;;;;;;4990764;28;50847;-64
2022/06/04 07:21:57;;;;;;;;;26.50;24.75;;;;;;;;4993121;28;51234;-64
2022/06/04 07:24:23;;;;;;;;;29.25;27.00;;;;;;;;4990143;28;52019;-65
2022/06/04 07:26:49;;;;;;;;;29.25;28.25;;;;;;;;4985390;28;51540;-64
2022/06/04 07:29:15;;;;;;;;;29.00;27.75;;;;;;;;4989364;28;51176;-63
2022/06/04 07:31:40;;;;;;;;;31.75;29.25;;;;;;;;4990583;28;51320;-64
2022/06/04 07:34:06;;;;;;;;;31.75;29.00;;;;;;;;4991304;28;52113;-65
2022/06/04 07:36:36;;;;;;;;;28.00;27.25;;;;;;;;4989471;28;51118;-62
2022/06/04 07:39:02;;;;;;;;;26.00;24.75;;;;;;;;4983297;28;51063;-64
2022/06/04 07:41:36;;;;;;;;;27.25;26.75;;;;;;;;4990942;28;50920;-64
2022/06/04 07:44:02;;;;;;;;;29.75;29.25;;;;;;;;4981340;28;51990;-63
2022/06/04 07:46:28;;;;;;;;;25.25;24.50;;;;;;;;4973688;28;51138;-65
2022/06/04 07:48:54;;;;;;;;;28.00;27.75;;;;;;;;4987039;28;51183;-65
2022/06/04 07:51:19;;;;;;;;;32.00;31.25;;;;;;;;4988762;28;51214;-64
2022/06/04 07:53:44;;;;;;;;;27.50;27.00;;;;;;;;4990541;28;52195;-65
2022/06/04 07:56:15;;;;;;;;;26.75;26.25;;;;;;;;4991595;28;51148;-64
2022/06/04 07:58:41;;;;;;;;;28.25;28.00;;;;;;;;4991641;28;51110;-66
2022/06/04 08:01:07;;;;;;;;;24.50;23.50;;;;;;;;5000504;28;51228;-66
2022/06/04 08:03:33;;;;;;;;;28.00;27.00;;;;;;;;4994867;28;51115;-65
2022/06/04 08:05:59;;;;;;;;;31.75;31.25;;;;;;;;4994964;28;51133;-65
2022/06/04 08:08:25;;;;;;;;;31.25;28.25;;;;;;;;4995645;28;50938;-65
2022/06/04 08:10:50;;;;;;;;;27.50;26.50;;;;;;;;4994707;28;53440;-66
2022/06/04 08:13:26;;;;;;;;;30.25;28.75;;;;;;;;4992029;28;53421;-64
2022/06/04 08:15:55;;;;;;;;;30.25;29.00;;;;;;;;4994951;28;51164;-65
2022/06/04 08:18:21;;;;;;;;;33.50;30.25;;;;;;;;4989739;28;51092;-65
2022/06/04 08:20:49;;;;;;;;;33.50;32.50;;;;;;;;4993377;28;51170;-66
2022/06/04 08:23:15;;;;;;;;;37.00;32.75;;;;;;;;4982162;28;52658;-66
2022/06/04 08:25:44;;;;;;;;;33.75;32.00;;;;;;;;4992108;28;51100;-65
2022/06/04 08:28:09;;;;;;;;;28.00;27.50;;;;;;;;4985589;28;51133;-64
2022/06/04 08:30:35;;;;;;;;;29.75;29.75;;;;;;;;4990120;28;51111;-64
2022/06/04 08:33:01;;;;;;;;;33.75;30.75;;;;;;;;4994418;28;51636;-64
2022/06/04 08:35:26;;;;;;;;;29.25;28.75;;;;;;;;4995311;28;50938;-65
2022/06/04 08:37:51;;;;;;;;;32.00;31.00;;;;;;;;4988935;28;51206;-66
2022/06/04 08:40:22;;;;;;;;;29.50;29.25;;;;;;;;4990831;28;51046;-65
2022/06/04 08:43:06;;;;;;;;;29.25;29.00;;;;;;;;4995613;28;51398;-65
2022/06/04 08:45:31;;;;;;;;;30.75;28.00;;;;;;;;4983606;28;51017;-64
2022/06/04 08:47:56;;;;;;;;;26.00;26.00;;;;;;;;4992105;28;51038;-66
2022/06/04 08:50:24;;;;;;;;;31.00;29.25;;;;;;;;4994472;28;51058;-66
2022/06/04 08:52:59;;;;;;;;;24.00;23.25;;;;;;;;4988029;28;52272;-66
2022/06/04 08:58:24;;;;;;;;;20.67;20.33;;;;;;;;4991007;28;51256;-64
2022/06/04 09:00:54;;;;;;;;;22.00;21.00;;;;;;;;4997165;28;51040;-64
2022/06/04 09:03:23;;;;;;;;;22.50;22.00;;;;;;;;4997165;28;52210;-65
2022/06/04 09:05:51;;;;;;;;;24.00;23.00;;;;;;;;4994348;28;51163;-65
2022/06/04 09:08:32;;;;;;;;;21.33;21.33;;;;;;;;4994772;28;51327;-65
2022/06/04 09:11:01;;;;;;;;;27.25;25.25;;;;;;;;4994993;28;50911;-64
2022/06/04 09:13:31;;;;;;;;;24.50;23.50;;;;;;;;4992358;28;51964;-64
2022/06/04 09:15:59;;;;;;;;;23.50;23.50;;;;;;;;4973170;28;51320;-64
2022/06/04 09:18:31;;;;;;;;;21.00;21.00;;;;;;;;5001432;28;51155;-63
2022/06/04 09:20:59;;;;;;;;;19.33;19.33;;;;;;;;5007114;28;51016;-63
2022/06/04 09:23:34;;;;;;;;;23.00;21.33;;;;;;;;4993621;28;51846;-64
2022/06/04 09:25:59;;;;;;;;;21.33;20.33;;;;;;;;4980599;28;51064;-64
2022/06/04 09:28:43;;;;;;;;;21.75;20.25;;;;;;;;4994219;28;51101;-64
2022/06/04 09:31:14;;;;;;;;;23.00;22.67;;;;;;;;4991089;28;51021;-63
2022/06/04 09:33:47;;;;;;;;;20.33;20.33;;;;;;;;4991447;28;53303;-63
2022/06/04 09:36:15;;;;;;;;;22.67;22.67;;;;;;;;4993495;28;51009;-63
2022/06/04 09:38:50;;;;;;;;;21.67;21.00;;;;;;;;4992888;28;51102;-63
2022/06/04 09:41:19;;;;;;;;;19.25;19.25;;;;;;;;4989178;28;51091;-65
2022/06/04 09:43:59;;;;;;;;;21.67;21.00;;;;;;;;4989654;28;52258;-63
2022/06/04 09:46:25;;;;;;;;;15.67;15.67;;;;;;;;4990821;28;51229;-63
2022/06/04 09:48:52;;;;;;;;;18.33;18.00;;;;;;;;4993833;28;51237;-63
2022/06/04 09:51:19;;;;;;;;;13.67;13.33;;;;;;;;4992502;28;51063;-63
2022/06/04 09:53:46;;;;;;;;;17.67;17.67;;;;;;;;4983801;28;53289;-63
2022/06/04 09:56:16;;;;;;;;;15.00;15.00;;;;;;;;4993330;28;51305;-63
2022/06/04 09:58:43;;;;;;;;;13.33;12.67;;;;;;;;4979518;28;51010;-63
2022/06/04 10:01:19;;;;;;;;;13.33;13.33;;;;;;;;4998319;28;50781;-63
2022/06/04 10:03:56;;;;;;;;;13.67;13.67;;;;;;;;4999248;28;51042;-64
2022/06/04 10:06:26;;;;;;;;;12.33;12.33;;;;;;;;4992776;28;51122;-63
2022/06/04 10:11:48;;;;;;;;;11.67;11.00;;;;;;;;4984629;28;51066;-63
2022/06/04 10:14:14;;;;;;;;;12.33;11.67;;;;;;;;4993441;28;51825;-63
2022/06/04 10:16:45;;;;;;;;;13.67;13.33;;;;;;;;4985483;28;51061;-63
2022/06/04 10:19:15;;;;;;;;;13.00;13.00;;;;;;;;4991048;28;51087;-62
2022/06/04 10:21:42;;;;;;;;;14.67;14.67;;;;;;;;4993186;28;51106;-63
2022/06/04 10:24:21;;;;;;;;;14.33;14.33;;;;;;;;4992062;28;51069;-63
2022/06/04 10:27:05;;;;;;;;;14.33;14.00;;;;;;;;4992184;28;50941;-62
2022/06/04 10:29:47;;;;;;;;;14.00;14.00;;;;;;;;4992751;28;50985;-63
2022/06/04 10:32:12;;;;;;;;;16.67;16.67;;;;;;;;4992675;28;51216;-63
2022/06/04 10:34:37;;;;;;;;;17.00;16.00;;;;;;;;4993003;28;52622;-62
2022/06/04 10:37:08;;;;;;;;;15.00;15.00;;;;;;;;4993153;28;51069;-63
2022/06/04 10:39:39;;;;;;;;;15.00;15.00;;;;;;;;4990989;28;51174;-63
2022/06/04 10:42:10;;;;;;;;;15.00;14.00;;;;;;;;4992441;28;50959;-63
2022/06/04 10:45:11;;;;;;;;;15.33;15.00;;;;;;;;4992119;28;52009;-62
2022/06/04 10:47:42;;;;;;;;;14.00;14.00;;;;;;;;4951140;28;51268;-63
2022/06/04 10:50:28;;;;;;;;;13.67;13.00;;;;;;;;4985453;28;51132;-63
2022/06/04 10:52:53;;;;;;;;;14.33;13.67;;;;;;;;4983333;28;51097;-63
2022/06/04 10:55:31;;;;;;;;;17.00;15.00;;;;;;;;4991881;28;52948;-63
2022/06/04 10:58:05;;;;;;;;;13.33;13.33;;;;;;;;4992292;28;50961;-63
2022/06/04 11:01:00;;;;;;;;;13.00;12.67;;;;;;;;4992223;28;51205;-62
2022/06/04 11:03:40;;;;;;;;;14.33;13.67;;;;;;;;4953262;28;51064;-63
2022/06/04 11:06:07;;;;;;;;;14.00;14.00;;;;;;;;4990893;28;53107;-62
2022/06/04 11:08:37;;;;;;;;;15.00;14.67;;;;;;;;4992326;28;51014;-63
2022/06/04 11:11:06;;;;;;;;;16.00;16.00;;;;;;;;4992684;28;51126;-63
2022/06/04 11:13:40;;;;;;;;;14.67;14.00;;;;;;;;4995338;28;51252;-62
2022/06/04 11:16:15;;;;;;;;;11.00;11.00;;;;;;;;4990860;28;51089;-62
2022/06/04 11:18:44;;;;;;;;;13.33;13.00;;;;;;;;4991634;28;51069;-62
2022/06/04 11:21:13;;;;;;;;;14.33;14.33;;;;;;;;4983102;28;51097;-61
2022/06/04 11:23:42;;;;;;;;;15.00;13.33;;;;;;;;4991459;28;51395;-62
2022/06/04 11:26:16;;;;;;;;;15.33;13.67;;;;;;;;4982864;28;51944;-63
2022/06/04 11:28:41;;;;;;;;;17.33;17.33;;;;;;;;4991031;28;51130;-62
2022/06/04 11:31:12;;;;;;;;;17.00;16.33;;;;;;;;4990738;28;51303;-62
2022/06/04 11:33:53;;;;;;;;;9.33;9.33;;;;;;;;4992413;28;50874;-63
2022/06/04 11:36:18;;;;;;;;;11.00;11.00;;;;;;;;4990726;28;52820;-63
2022/06/04 11:39:05;;;;;;;;;12.33;11.67;;;;;;;;4992084;28;51202;-63
2022/06/04 11:41:30;;;;;;;;;13.33;13.33;;;;;;;;4990753;28;50951;-63
2022/06/04 11:44:14;;;;;;;;;13.67;13.67;;;;;;;;4991200;28;51144;-64
2022/06/04 11:46:52;;;;;;;;;10.33;10.33;;;;;;;;4988316;28;52521;-63
2022/06/04 11:49:20;;;;;;;;;12.00;12.00;;;;;;;;4998467;28;51216;-63
2022/06/04 11:51:54;;;;;;;;;10.67;10.33;;;;;;;;4998612;28;50989;-63
2022/06/04 11:54:32;;;;;;;;;11.67;11.67;;;;;;;;4985336;28;52937;-62
2022/06/04 11:57:15;;;;;;;;;13.00;13.00;;;;;;;;4984702;28;51794;-62
2022/06/04 11:59:53;;;;;;;;;11.33;11.33;;;;;;;;4998018;28;50984;-62
2022/06/04 12:02:22;;;;;;;;;10.00;9.67;;;;;;;;5003566;28;51107;-63
2022/06/04 12:05:02;;;;;;;;;12.67;12.00;;;;;;;;4991290;28;51324;-63
2022/06/04 12:07:33;;;;;;;;;9.67;9.00;;;;;;;;4990675;28;51256;-63
2022/06/04 12:10:07;;;;;;;;;8.00;8.00;;;;;;;;4990918;28;51088;-64
2022/06/04 12:12:36;;;;;;;;;7.33;7.33;;;;;;;;4990956;28;50985;-63
2022/06/04 12:15:23;;;;;;;;;11.00;11.00;;;;;;;;4990859;28;51356;-63
2022/06/04 12:17:56;;;;;;;;;10.00;9.67;;;;;;;;4984570;28;51085;-62
2022/06/04 12:26:18;;;;;;;;;11.00;11.00;;;;;;;;4990479;28;51097;-63
2022/06/04 12:28:44;;;;;;;;;6.33;6.33;;;;;;;;4985329;28;51573;-63
2022/06/04 12:31:09;;;;;;;;;4.00;4.00;;;;;;;;4995247;28;51069;-63
2022/06/04 12:33:48;;;;;;;;;3.67;3.67;;;;;;;;4985755;28;53327;-63
2022/06/04 12:36:22;;;;;;;;;6.33;6.33;;;;;;;;4985208;28;51143;-63
2022/06/04 12:38:56;;;;;;;;;5.33;5.33;;;;;;;;4990760;28;51989;-62
2022/06/04 12:41:22;;;;;;;;;6.00;5.00;;;;;;;;4989771;28;51103;-62
2022/06/04 12:43:55;;;;;;;;;4.67;4.67;;;;;;;;4988400;28;51112;-62
2022/06/04 12:46:23;;;;;;;;;4.33;4.33;;;;;;;;4991311;28;51093;-64
2022/06/04 12:48:56;;;;;;;;;6.00;5.00;;;;;;;;4992539;28;52001;-62
2022/06/04 12:51:22;;;;;;;;;6.00;6.00;;;;;;;;4980732;28;51114;-63
2022/06/04 12:53:50;;;;;;;;;5.00;5.00;;;;;;;;4992155;28;51164;-63
2022/06/04 12:56:25;;;;;;;;;9.00;9.00;;;;;;;;4988854;28;51347;-62
2022/06/04 12:58:53;;;;;;;;;6.00;6.00;;;;;;;;4984850;28;51086;-63
2022/06/04 13:01:18;;;;;;;;;6.00;6.00;;;;;;;;4992711;28;51159;-63
2022/06/04 13:03:45;;;;;;;;;5.67;5.00;;;;;;;;4988248;28;51482;-63
2022/06/04 13:06:29;;;;;;;;;6.33;6.00;;;;;;;;4993467;28;51064;-63
2022/06/04 13:08:55;;;;;;;;;3.33;3.33;;;;;;;;4992442;28;51140;-64
2022/06/04 13:11:32;;;;;;;;;4.00;4.00;;;;;;;;4993110;28;50969;-62
2022/06/04 13:14:16;;;;;;;;;4.67;4.67;;;;;;;;4998380;28;51171;-62
2022/06/04 13:16:47;;;;;;;;;6.67;6.00;;;;;;;;4992977;28;52001;-63
2022/06/04 13:19:20;;;;;;;;;4.67;4.67;;;;;;;;4991265;28;52333;-62
2022/06/04 13:21:48;;;;;;;;;6.33;5.33;;;;;;;;4991293;28;51099;-63
2022/06/04 13:24:17;;;;;;;;;4.33;4.33;;;;;;;;4984805;28;51085;-63
2022/06/04 13:27:01;;;;;;;;;4.33;4.33;;;;;;;;4992982;28;51029;-63
2022/06/04 13:29:28;;;;;;;;;5.00;5.00;;;;;;;;4992565;28;51191;-64
2022/06/04 13:31:55;;;;;;;;;5.67;5.67;;;;;;;;4993142;28;51159;-63
2022/06/04 13:34:25;;;;;;;;;4.00;4.00;;;;;;;;4993057;28;50907;-63
2022/06/04 13:37:01;;;;;;;;;6.00;5.00;;;;;;;;4993320;28;51041;-63
2022/06/04 13:39:29;;;;;;;;;5.00;5.00;;;;;;;;4985196;28;51094;-63
2022/06/04 13:42:05;;;;;;;;;5.67;5.67;;;;;;;;4993064;28;51077;-63
2022/06/04 13:44:38;;;;;;;;;5.00;4.00;;;;;;;;4992959;28;51003;-64
2022/06/04 13:47:14;;;;;;;;;4.00;4.00;;;;;;;;4993867;28;51079;-64
2022/06/04 13:49:41;;;;;;;;;2.33;2.33;;;;;;;;4993384;28;51132;-64
2022/06/04 13:52:11;;;;;;;;;6.00;6.00;;;;;;;;4993426;28;51057;-64
2022/06/04 13:54:38;;;;;;;;;6.67;6.33;;;;;;;;4992896;28;50958;-63
2022/06/04 13:57:10;;;;;;;;;5.00;4.67;;;;;;;;4992837;28;51176;-63
2022/06/04 13:59:43;;;;;;;;;5.00;5.00;;;;;;;;4991418;28;51831;-63
2022/06/04 14:02:22;;;;;;;;;6.00;6.00;;;;;;;;4991156;28;51019;-63
2022/06/04 14:07:35;;;;;;;;;5.33;5.00;;;;;;;;4993101;28;50872;-63
2022/06/04 14:10:01;;;;;;;;;4.33;4.33;;;;;;;;5004854;28;51772;-63
2022/06/04 14:12:45;;;;;;;;;4.00;4.00;;;;;;;;4992392;28;51044;-63
2022/06/04 14:15:13;;;;;;;;;4.00;4.00;;;;;;;;4992494;28;50872;-64
2022/06/04 14:18:05;;;;;;;;;4.33;4.33;;;;;;;;4993992;28;51273;-63
2022/06/04 14:20:33;;;;;;;;;5.00;5.00;;;;;;;;4993033;28;51889;-63
2022/06/04 14:23:07;;;;;;;;;5.00;5.00;;;;;;;;4992676;28;50998;-63
2022/06/04 14:25:35;;;;;;;;;2.33;2.33;;;;;;;;4992522;28;51319;-62
2022/06/04 14:28:03;;;;;;;;;4.67;4.67;;;;;;;;4982274;28;51081;-63
2022/06/04 14:30:32;;;;;;;;;4.67;4.67;;;;;;;;4987607;28;51057;-64
2022/06/04 14:32:57;;;;;;;;;5.00;4.67;;;;;;;;4992281;28;50891;-64
2022/06/04 14:35:33;;;;;;;;;4.67;4.33;;;;;;;;4971813;28;51324;-63
2022/06/04 14:37:59;;;;;;;;;6.00;6.00;;;;;;;;4968632;28;51115;-64
2022/06/04 14:40:30;;;;;;;;;5.67;5.67;;;;;;;;4989666;28;51865;-62
2022/06/04 14:43:08;;;;;;;;;4.33;4.33;;;;;;;;4995332;28;51130;-62
2022/06/04 14:45:52;;;;;;;;;4.33;4.33;;;;;;;;5006114;28;51022;-65
2022/06/04 14:48:33;;;;;;;;;6.00;5.00;;;;;;;;4998476;28;51303;-63
2022/06/04 14:51:17;;;;;;;;;4.67;4.67;;;;;;;;4989207;28;51260;-64
2022/06/04 14:53:43;;;;;;;;;6.00;6.00;;;;;;;;4992487;28;50970;-63
2022/06/04 14:56:22;;;;;;;;;6.00;6.00;;;;;;;;4992183;28;51006;-64